2000 CONNIE (2000025S15056)


On this page: IBTrACS data - Map and Plots - Positions - Intensities - Original source data

Summary

Start Jan 25
End Feb 2
Basin SI
LMI 120 kt
Sources jtwc_sh
reunion
neumann
In WMO? Yes
Previous storm 2000 KIRRILY (SI)
Previous in basin 2000 KIRRILY (SI)
Concurrent storms 2000 TD (SP)
2000 JO (SP)
2000 KIRRILY (SI)
2000 CONNIE (SI)
2000 DAMIENNE (SI)
2000 ELINE (SI)
Next in basin 2000 DAMIENNE (SI)
Next storm 2000 DAMIENNE (SI)

top of page IBTrACS Data: File Access

top of page HURSAT Data: File Access

Image of storm

top of page Plots:

Map of storm track will not appear if FTP is down
Time series of cyclone Maximum Sustained Wind will not appear if FTP is down
Time series of cyclone Minimum Central Pressure will not appear if FTP is down

top of page Track Data:Position

jtwc_sh reunion neumann
Date Lat Lon Lat Lon Lat Lon
2000-01-25 00:00:00 -15.2 56.2 -15.3 56.1 -15.2 56.2
2000-01-25 06:00:00 -15.1 56.0 -15.3 55.7 -15.1 56.0
2000-01-25 12:00:00 -15.0 55.8 -15.0 55.3 -15.0 55.8
2000-01-25 18:00:00 -14.8 55.7 -14.8 55.3 -14.8 55.7
2000-01-26 00:00:00 -14.6 55.6 -14.7 55.3 -14.6 55.6
2000-01-26 06:00:00 -14.5 55.6 -14.6 55.4 -14.5 55.6
2000-01-26 12:00:00 -14.4 55.7 -14.4 55.6 -14.4 55.7
2000-01-26 18:00:00 -14.4 55.9 -14.3 55.7 -14.4 55.9
2000-01-27 00:00:00 -14.7 56.2 -14.7 56.0 -14.7 56.2
2000-01-27 06:00:00 -15.1 56.4 -15.2 56.4 -15.1 56.4
2000-01-27 12:00:00 -15.5 56.6 -15.7 56.6 -15.5 56.6
2000-01-27 18:00:00 -15.9 56.8 -16.0 56.8 -15.9 56.8
2000-01-28 00:00:00 -16.3 57.0 -16.4 57.0 -16.3 57.0
2000-01-28 06:00:00 -16.7 57.0 -16.7 57.1 -16.7 57.0
2000-01-28 12:00:00 -17.1 57.0 -17.1 57.0 -17.1 57.0
2000-01-28 18:00:00 -17.6 56.6 -17.7 56.6 -17.6 56.6
2000-01-29 00:00:00 -18.1 56.1 -18.1 56.2 -18.1 56.1
2000-01-29 06:00:00 -19.0 55.4 -18.9 55.2 -19.0 55.4
2000-01-29 12:00:00 -19.9 54.7 -19.9 54.5 -19.9 54.7
2000-01-29 18:00:00 -20.9 53.8 -20.9 53.6 -20.9 53.8
2000-01-30 00:00:00 -22.0 53.0 -22.0 52.6 -22.0 53.0
2000-01-30 06:00:00 -23.2 51.8 -23.1 51.6 -23.2 51.8
2000-01-30 12:00:00 -24.4 50.8 -24.4 50.7 -24.4 50.8
2000-01-30 18:00:00 -25.2 50.2 -25.6 50.2 -25.2 50.2
2000-01-31 00:00:00 -26.3 50.2 -26.4 50.2 -26.3 50.2
jtwc_sh reunion neumann
2000-01-31 06:00:00 -27.6 50.4 -27.6 50.4 -27.6 50.4
2000-01-31 12:00:00 -28.8 50.9 -28.8 50.8 -28.8 50.9
2000-01-31 18:00:00 -29.7 51.3 -29.6 51.3 -29.7 51.3
2000-02-01 00:00:00 -30.5 51.8 -30.4 51.9 -30.5 51.8
2000-02-01 06:00:00 -31.3 52.3 -30.9 52.3 -31.3 52.3
2000-02-01 12:00:00 -31.7 52.7 -31.5 52.8 -31.7 52.7
2000-02-01 18:00:00 -32.2 53.2 -31.9 53.4 -32.2 53.2
2000-02-02 00:00:00 -32.8 53.8 -32.4 53.9 -32.8 53.8
2000-02-02 06:00:00 -33.4 54.5 -33.0 54.6 -33.4 54.5
2000-02-02 12:00:00 -34.4 56.0 -33.8 55.6 -34.4 56.0

top of pageTrack Data:Intensity

jtwc_sh reunion neumann
Date Wind Pres Wind Pres Wind Pres
2000-01-25 00:00:00 20. 20. 1003. 20.
2000-01-25 06:00:00 25. 25. 1000. 25.
2000-01-25 12:00:00 25. 30. 997. 25.
2000-01-25 18:00:00 35. 35. 993. 35.
2000-01-26 00:00:00 35. 40. 990. 35.
2000-01-26 06:00:00 35. 43. 988. 35.
2000-01-26 12:00:00 45. 43. 988. 45.
2000-01-26 18:00:00 55. 50. 983. 55.
2000-01-27 00:00:00 60. 60. 975. 60.
2000-01-27 06:00:00 65. 70. 965. 65.
2000-01-27 12:00:00 85. 80. 955. 85.
2000-01-27 18:00:00 115. 90. 940. 115.
2000-01-28 00:00:00 120. 90. 940. 120.
2000-01-28 06:00:00 110. 95. 935. 110.
2000-01-28 12:00:00 110. 100. 930. 110.
2000-01-28 18:00:00 105. 100. 930. 105.
2000-01-29 00:00:00 95. 100. 930. 95.
2000-01-29 06:00:00 90. 95. 935. 90.
2000-01-29 12:00:00 80. 85. 950. 80.
2000-01-29 18:00:00 80. 75. 960. 80.
2000-01-30 00:00:00 70. 70. 965. 70.
2000-01-30 06:00:00 65. 70. 968. 65.
2000-01-30 12:00:00 65. 60. 973. 65.
2000-01-30 18:00:00 65. 60. 975. 65.
2000-01-31 00:00:00 65. 60. 975. 65.
jtwc_sh reunion neumann
2000-01-31 06:00:00 55. 55. 980. 55.
2000-01-31 12:00:00 55. 55. 980. 55.
2000-01-31 18:00:00 65. 50. 983. 65.
2000-02-01 00:00:00 60. 50. 985. 60.
2000-02-01 06:00:00 45. 45. 988. 45.
2000-02-01 12:00:00 35. 45. 988. 35.
2000-02-01 18:00:00 35. 40. 990. 35.
2000-02-02 00:00:00 25. 40. 990. 25.
2000-02-02 06:00:00 25. 40. 992. 25.
2000-02-02 12:00:00 25. 35. 995. 25.

top of page Links to source data

Source Source file Format
jtwc_sh bsh082000.txt ATCF
reunion WMO-Best-Tracks.txt:Line=18837:connie WMO (old format)
neumann tracks.sh:Storm=1182:CONNIE:08S:BSH082000 HURDAT